sensor_id;sensor_type;location;lat;lon;timestamp;temperature;humidity
7894;DHT22;51343;51.396;6.656;2023-04-16T00:01:24;8.20;99.90
7894;DHT22;51343;51.396;6.656;2023-04-16T00:03:50;8.10;99.90
7894;DHT22;51343;51.396;6.656;2023-04-16T00:06:17;8.20;99.90
7894;DHT22;51343;51.396;6.656;2023-04-16T00:08:44;8.10;99.90
7894;DHT22;51343;51.396;6.656;2023-04-16T00:11:11;8.10;99.90
7894;DHT22;51343;51.396;6.656;2023-04-16T00:13:37;8.10;99.90
7894;DHT22;51343;51.396;6.656;2023-04-16T00:16:06;8.10;99.90
7894;DHT22;51343;51.396;6.656;2023-04-16T00:18:33;8.10;99.90
7894;DHT22;51343;51.396;6.656;2023-04-16T00:21:00;8.20;99.90
7894;DHT22;51343;51.396;6.656;2023-04-16T00:23:26;8.20;99.90
7894;DHT22;51343;51.396;6.656;2023-04-16T00:25:53;8.10;99.90
7894;DHT22;51343;51.396;6.656;2023-04-16T00:28:21;8.20;99.90
7894;DHT22;51343;51.396;6.656;2023-04-16T00:30:48;8.10;99.90
7894;DHT22;51343;51.396;6.656;2023-04-16T00:33:16;8.20;99.90
7894;DHT22;51343;51.396;6.656;2023-04-16T00:35:44;8.20;99.90
7894;DHT22;51343;51.396;6.656;2023-04-16T00:38:10;8.20;99.90
7894;DHT22;51343;51.396;6.656;2023-04-16T00:40:37;8.20;99.90
7894;DHT22;51343;51.396;6.656;2023-04-16T00:43:04;8.20;99.90
7894;DHT22;51343;51.396;6.656;2023-04-16T00:45:30;8.20;99.90
7894;DHT22;51343;51.396;6.656;2023-04-16T00:47:57;8.20;99.90
7894;DHT22;51343;51.396;6.656;2023-04-16T00:50:25;8.20;99.90
7894;DHT22;51343;51.396;6.656;2023-04-16T00:52:52;8.20;99.90
7894;DHT22;51343;51.396;6.656;2023-04-16T00:55:19;8.20;99.90
7894;DHT22;51343;51.396;6.656;2023-04-16T00:57:46;8.20;99.90
7894;DHT22;51343;51.396;6.656;2023-04-16T01:00:13;8.20;99.90
7894;DHT22;51343;51.396;6.656;2023-04-16T01:02:39;8.20;99.90
7894;DHT22;51343;51.396;6.656;2023-04-16T01:05:06;8.20;99.90
7894;DHT22;51343;51.396;6.656;2023-04-16T01:07:35;8.20;99.90
7894;DHT22;51343;51.396;6.656;2023-04-16T01:10:01;8.20;99.90
7894;DHT22;51343;51.396;6.656;2023-04-16T01:12:28;8.30;99.90
7894;DHT22;51343;51.396;6.656;2023-04-16T01:14:55;8.20;99.90
7894;DHT22;51343;51.396;6.656;2023-04-16T01:17:22;8.30;99.90
7894;DHT22;51343;51.396;6.656;2023-04-16T01:19:49;8.20;99.90
7894;DHT22;51343;51.396;6.656;2023-04-16T01:22:16;8.20;99.90
7894;DHT22;51343;51.396;6.656;2023-04-16T01:24:43;8.20;99.90
7894;DHT22;51343;51.396;6.656;2023-04-16T01:27:10;8.20;99.90
7894;DHT22;51343;51.396;6.656;2023-04-16T01:29:37;8.20;99.90
7894;DHT22;51343;51.396;6.656;2023-04-16T01:32:04;8.20;99.90
7894;DHT22;51343;51.396;6.656;2023-04-16T01:34:30;8.20;99.90
7894;DHT22;51343;51.396;6.656;2023-04-16T01:37:00;8.20;99.90
7894;DHT22;51343;51.396;6.656;2023-04-16T01:39:28;8.20;99.90
7894;DHT22;51343;51.396;6.656;2023-04-16T01:41:55;8.20;99.90
7894;DHT22;51343;51.396;6.656;2023-04-16T01:44:21;8.20;99.90
7894;DHT22;51343;51.396;6.656;2023-04-16T01:46:48;8.20;99.90
7894;DHT22;51343;51.396;6.656;2023-04-16T01:49:15;8.20;99.90
7894;DHT22;51343;51.396;6.656;2023-04-16T01:51:41;8.10;99.90
7894;DHT22;51343;51.396;6.656;2023-04-16T01:54:08;8.10;99.90
7894;DHT22;51343;51.396;6.656;2023-04-16T01:56:36;8.10;99.90
7894;DHT22;51343;51.396;6.656;2023-04-16T01:59:03;8.10;99.90
7894;DHT22;51343;51.396;6.656;2023-04-16T02:01:29;8.10;99.90
7894;DHT22;51343;51.396;6.656;2023-04-16T02:03:56;8.10;99.90
7894;DHT22;51343;51.396;6.656;2023-04-16T02:06:23;8.10;99.90
7894;DHT22;51343;51.396;6.656;2023-04-16T02:08:50;8.10;99.90
7894;DHT22;51343;51.396;6.656;2023-04-16T02:11:16;8.10;99.90
7894;DHT22;51343;51.396;6.656;2023-04-16T02:13:45;8.10;99.90
7894;DHT22;51343;51.396;6.656;2023-04-16T02:16:11;8.10;99.90
7894;DHT22;51343;51.396;6.656;2023-04-16T02:18:38;8.10;99.90
7894;DHT22;51343;51.396;6.656;2023-04-16T02:21:05;8.10;99.90
7894;DHT22;51343;51.396;6.656;2023-04-16T02:23:33;8.10;99.90
7894;DHT22;51343;51.396;6.656;2023-04-16T02:26:01;8.10;99.90
7894;DHT22;51343;51.396;6.656;2023-04-16T02:28:28;8.10;99.90
7894;DHT22;51343;51.396;6.656;2023-04-16T02:30:56;8.10;99.90
7894;DHT22;51343;51.396;6.656;2023-04-16T02:33:23;8.10;99.90
7894;DHT22;51343;51.396;6.656;2023-04-16T02:35:51;8.00;99.90
7894;DHT22;51343;51.396;6.656;2023-04-16T02:38:17;8.10;99.90
7894;DHT22;51343;51.396;6.656;2023-04-16T02:40:44;8.10;99.90
7894;DHT22;51343;51.396;6.656;2023-04-16T02:43:10;8.10;99.90
7894;DHT22;51343;51.396;6.656;2023-04-16T02:45:37;8.00;99.90
7894;DHT22;51343;51.396;6.656;2023-04-16T02:48:05;8.00;99.90
7894;DHT22;51343;51.396;6.656;2023-04-16T02:50:33;8.00;99.90
7894;DHT22;51343;51.396;6.656;2023-04-16T02:53:00;8.00;99.90
7894;DHT22;51343;51.396;6.656;2023-04-16T02:55:27;8.00;99.90
7894;DHT22;51343;51.396;6.656;2023-04-16T02:57:54;8.00;99.90
7894;DHT22;51343;51.396;6.656;2023-04-16T03:00:21;8.00;99.90
7894;DHT22;51343;51.396;6.656;2023-04-16T03:02:47;8.10;99.90
7894;DHT22;51343;51.396;6.656;2023-04-16T03:05:15;8.00;99.90
7894;DHT22;51343;51.396;6.656;2023-04-16T03:07:42;8.10;99.90
7894;DHT22;51343;51.396;6.656;2023-04-16T03:10:09;8.10;99.90
7894;DHT22;51343;51.396;6.656;2023-04-16T03:12:36;8.10;99.90
7894;DHT22;51343;51.396;6.656;2023-04-16T03:15:03;8.10;99.90
7894;DHT22;51343;51.396;6.656;2023-04-16T03:17:30;8.10;99.90
7894;DHT22;51343;51.396;6.656;2023-04-16T03:19:57;8.10;99.90
7894;DHT22;51343;51.396;6.656;2023-04-16T03:22:25;8.10;99.90
7894;DHT22;51343;51.396;6.656;2023-04-16T03:24:52;8.10;99.90
7894;DHT22;51343;51.396;6.656;2023-04-16T03:27:19;8.10;99.90
7894;DHT22;51343;51.396;6.656;2023-04-16T03:29:46;8.10;99.90
7894;DHT22;51343;51.396;6.656;2023-04-16T03:32:13;8.20;99.90
7894;DHT22;51343;51.396;6.656;2023-04-16T03:34:39;8.20;99.90
7894;DHT22;51343;51.396;6.656;2023-04-16T03:37:06;8.20;99.90
7894;DHT22;51343;51.396;6.656;2023-04-16T03:39:37;8.20;99.90
7894;DHT22;51343;51.396;6.656;2023-04-16T03:42:04;8.20;99.90
7894;DHT22;51343;51.396;6.656;2023-04-16T03:44:30;8.20;99.90
7894;DHT22;51343;51.396;6.656;2023-04-16T03:46:57;8.20;99.90
7894;DHT22;51343;51.396;6.656;2023-04-16T03:49:24;8.20;99.90
7894;DHT22;51343;51.396;6.656;2023-04-16T03:51:50;8.20;99.90
7894;DHT22;51343;51.396;6.656;2023-04-16T03:54:17;8.20;99.90
7894;DHT22;51343;51.396;6.656;2023-04-16T03:56:45;8.20;99.90
7894;DHT22;51343;51.396;6.656;2023-04-16T03:59:12;8.20;99.90
7894;DHT22;51343;51.396;6.656;2023-04-16T04:01:39;8.20;99.90
7894;DHT22;51343;51.396;6.656;2023-04-16T04:04:05;8.20;99.90
7894;DHT22;51343;51.396;6.656;2023-04-16T04:06:33;8.20;99.90
7894;DHT22;51343;51.396;6.656;2023-04-16T04:09:02;8.30;99.90
7894;DHT22;51343;51.396;6.656;2023-04-16T04:11:29;8.30;99.90
7894;DHT22;51343;51.396;6.656;2023-04-16T04:13:57;8.30;99.90
7894;DHT22;51343;51.396;6.656;2023-04-16T04:16:24;8.20;99.90
7894;DHT22;51343;51.396;6.656;2023-04-16T04:18:50;8.20;99.90
7894;DHT22;51343;51.396;6.656;2023-04-16T04:21:17;8.20;99.90
7894;DHT22;51343;51.396;6.656;2023-04-16T04:23:44;8.20;99.90
7894;DHT22;51343;51.396;6.656;2023-04-16T04:26:10;8.20;99.90
7894;DHT22;51343;51.396;6.656;2023-04-16T04:28:37;8.20;99.90
7894;DHT22;51343;51.396;6.656;2023-04-16T04:31:05;8.20;99.90
7894;DHT22;51343;51.396;6.656;2023-04-16T04:33:32;8.30;99.90
7894;DHT22;51343;51.396;6.656;2023-04-16T04:35:58;8.20;99.90
7894;DHT22;51343;51.396;6.656;2023-04-16T04:38:25;8.30;99.90
7894;DHT22;51343;51.396;6.656;2023-04-16T04:40:52;8.20;99.90
7894;DHT22;51343;51.396;6.656;2023-04-16T04:43:19;8.30;99.90
7894;DHT22;51343;51.396;6.656;2023-04-16T04:45:46;8.20;99.90
7894;DHT22;51343;51.396;6.656;2023-04-16T04:48:15;8.30;99.90
7894;DHT22;51343;51.396;6.656;2023-04-16T04:50:43;8.30;99.90
7894;DHT22;51343;51.396;6.656;2023-04-16T04:53:10;8.30;99.90
7894;DHT22;51343;51.396;6.656;2023-04-16T04:55:40;8.30;99.90
7894;DHT22;51343;51.396;6.656;2023-04-16T04:58:07;8.30;99.90
7894;DHT22;51343;51.396;6.656;2023-04-16T05:00:34;8.30;99.90
7894;DHT22;51343;51.396;6.656;2023-04-16T05:03:02;8.30;99.90
7894;DHT22;51343;51.396;6.656;2023-04-16T05:05:30;8.30;99.90
7894;DHT22;51343;51.396;6.656;2023-04-16T05:07:58;8.30;99.90
7894;DHT22;51343;51.396;6.656;2023-04-16T05:10:25;8.30;99.90
7894;DHT22;51343;51.396;6.656;2023-04-16T05:12:51;8.30;99.90
7894;DHT22;51343;51.396;6.656;2023-04-16T05:15:18;8.30;99.90
7894;DHT22;51343;51.396;6.656;2023-04-16T05:17:45;8.30;99.90
7894;DHT22;51343;51.396;6.656;2023-04-16T05:20:11;8.30;99.90
7894;DHT22;51343;51.396;6.656;2023-04-16T05:22:39;8.30;99.90
7894;DHT22;51343;51.396;6.656;2023-04-16T05:25:06;8.30;99.90
7894;DHT22;51343;51.396;6.656;2023-04-16T05:27:33;8.30;99.90
7894;DHT22;51343;51.396;6.656;2023-04-16T05:30:00;8.30;99.90
7894;DHT22;51343;51.396;6.656;2023-04-16T05:32:27;8.30;99.90
7894;DHT22;51343;51.396;6.656;2023-04-16T05:34:54;8.30;99.90
7894;DHT22;51343;51.396;6.656;2023-04-16T05:37:20;8.30;99.90
7894;DHT22;51343;51.396;6.656;2023-04-16T05:39:48;8.40;99.90
7894;DHT22;51343;51.396;6.656;2023-04-16T05:42:15;8.30;99.90
7894;DHT22;51343;51.396;6.656;2023-04-16T05:44:42;8.40;99.90
7894;DHT22;51343;51.396;6.656;2023-04-16T05:47:08;8.40;99.90
7894;DHT22;51343;51.396;6.656;2023-04-16T05:49:35;8.30;99.90
7894;DHT22;51343;51.396;6.656;2023-04-16T05:52:02;8.40;99.90
7894;DHT22;51343;51.396;6.656;2023-04-16T05:54:28;8.40;99.90
7894;DHT22;51343;51.396;6.656;2023-04-16T05:56:56;8.40;99.90
7894;DHT22;51343;51.396;6.656;2023-04-16T05:59:23;8.40;99.90
7894;DHT22;51343;51.396;6.656;2023-04-16T06:01:50;8.40;99.90
7894;DHT22;51343;51.396;6.656;2023-04-16T06:04:17;8.40;99.90
7894;DHT22;51343;51.396;6.656;2023-04-16T06:06:44;8.40;99.90
7894;DHT22;51343;51.396;6.656;2023-04-16T06:09:10;8.40;99.90
7894;DHT22;51343;51.396;6.656;2023-04-16T06:11:37;8.40;99.90
7894;DHT22;51343;51.396;6.656;2023-04-16T06:14:05;8.40;99.90
7894;DHT22;51343;51.396;6.656;2023-04-16T06:16:32;8.40;99.90
7894;DHT22;51343;51.396;6.656;2023-04-16T06:18:58;8.40;99.90
7894;DHT22;51343;51.396;6.656;2023-04-16T06:21:25;8.40;99.90
7894;DHT22;51343;51.396;6.656;2023-04-16T06:23:53;8.40;99.90
7894;DHT22;51343;51.396;6.656;2023-04-16T06:26:19;8.40;99.90
7894;DHT22;51343;51.396;6.656;2023-04-16T06:28:46;8.40;99.90
7894;DHT22;51343;51.396;6.656;2023-04-16T06:31:14;8.40;99.90
7894;DHT22;51343;51.396;6.656;2023-04-16T06:33:41;8.40;99.90
7894;DHT22;51343;51.396;6.656;2023-04-16T06:36:09;8.40;99.90
7894;DHT22;51343;51.396;6.656;2023-04-16T06:38:36;8.50;99.90
7894;DHT22;51343;51.396;6.656;2023-04-16T06:41:03;8.50;99.90
7894;DHT22;51343;51.396;6.656;2023-04-16T06:43:29;8.50;99.90
7894;DHT22;51343;51.396;6.656;2023-04-16T06:45:57;8.60;99.90
7894;DHT22;51343;51.396;6.656;2023-04-16T06:48:26;8.60;99.90
7894;DHT22;51343;51.396;6.656;2023-04-16T06:50:54;8.60;99.90
7894;DHT22;51343;51.396;6.656;2023-04-16T06:53:21;8.70;99.90
7894;DHT22;51343;51.396;6.656;2023-04-16T06:55:48;8.70;99.90
7894;DHT22;51343;51.396;6.656;2023-04-16T06:58:14;8.70;99.90
7894;DHT22;51343;51.396;6.656;2023-04-16T07:00:41;8.70;99.90
7894;DHT22;51343;51.396;6.656;2023-04-16T07:03:08;8.70;99.90
7894;DHT22;51343;51.396;6.656;2023-04-16T07:05:36;8.70;99.90
7894;DHT22;51343;51.396;6.656;2023-04-16T07:08:02;8.70;99.90
7894;DHT22;51343;51.396;6.656;2023-04-16T07:10:29;8.70;99.90
7894;DHT22;51343;51.396;6.656;2023-04-16T07:12:56;8.70;99.90
7894;DHT22;51343;51.396;6.656;2023-04-16T07:15:23;8.70;99.90
7894;DHT22;51343;51.396;6.656;2023-04-16T07:17:49;8.80;99.90
7894;DHT22;51343;51.396;6.656;2023-04-16T07:20:16;8.80;99.90
7894;DHT22;51343;51.396;6.656;2023-04-16T07:22:44;8.80;99.90
7894;DHT22;51343;51.396;6.656;2023-04-16T07:25:10;8.90;99.90
7894;DHT22;51343;51.396;6.656;2023-04-16T07:27:37;8.90;99.90
7894;DHT22;51343;51.396;6.656;2023-04-16T07:30:04;9.00;99.90
7894;DHT22;51343;51.396;6.656;2023-04-16T07:32:32;9.00;99.90
7894;DHT22;51343;51.396;6.656;2023-04-16T07:34:59;9.20;99.90
7894;DHT22;51343;51.396;6.656;2023-04-16T07:37:25;9.30;99.90
7894;DHT22;51343;51.396;6.656;2023-04-16T07:39:53;9.30;99.90
7894;DHT22;51343;51.396;6.656;2023-04-16T07:42:21;9.50;99.90
7894;DHT22;51343;51.396;6.656;2023-04-16T07:44:48;9.50;99.90
7894;DHT22;51343;51.396;6.656;2023-04-16T07:47:15;9.70;99.90
7894;DHT22;51343;51.396;6.656;2023-04-16T07:49:42;9.70;99.90
7894;DHT22;51343;51.396;6.656;2023-04-16T07:52:08;9.70;99.90
7894;DHT22;51343;51.396;6.656;2023-04-16T07:54:35;9.80;99.90
7894;DHT22;51343;51.396;6.656;2023-04-16T07:57:03;9.90;99.90
7894;DHT22;51343;51.396;6.656;2023-04-16T07:59:30;10.00;99.90
7894;DHT22;51343;51.396;6.656;2023-04-16T08:01:56;10.10;99.90
7894;DHT22;51343;51.396;6.656;2023-04-16T08:04:23;10.10;99.90
7894;DHT22;51343;51.396;6.656;2023-04-16T08:06:50;10.20;1.00
7894;DHT22;51343;51.396;6.656;2023-04-16T08:09:17;10.20;99.90
7894;DHT22;51343;51.396;6.656;2023-04-16T08:11:44;10.40;1.00
7894;DHT22;51343;51.396;6.656;2023-04-16T08:14:12;10.40;99.90
7894;DHT22;51343;51.396;6.656;2023-04-16T08:16:39;10.40;1.00
7894;DHT22;51343;51.396;6.656;2023-04-16T08:19:06;10.30;99.90
7894;DHT22;51343;51.396;6.656;2023-04-16T08:21:33;10.40;1.00
7894;DHT22;51343;51.396;6.656;2023-04-16T08:24:00;10.50;1.00
7894;DHT22;51343;51.396;6.656;2023-04-16T08:26:27;10.50;1.00
7894;DHT22;51343;51.396;6.656;2023-04-16T08:28:54;10.50;99.90
7894;DHT22;51343;51.396;6.656;2023-04-16T08:31:22;10.50;99.90
7894;DHT22;51343;51.396;6.656;2023-04-16T08:33:48;10.60;99.90
7894;DHT22;51343;51.396;6.656;2023-04-16T08:36:15;10.70;74.60
7894;DHT22;51343;51.396;6.656;2023-04-16T08:38:42;10.70;49.20
7894;DHT22;51343;51.396;6.656;2023-04-16T08:41:10;10.80;45.90
7894;DHT22;51343;51.396;6.656;2023-04-16T08:43:38;10.80;1.00
7894;DHT22;51343;51.396;6.656;2023-04-16T08:46:08;10.80;99.90
7894;DHT22;51343;51.396;6.656;2023-04-16T08:48:36;10.90;1.00
7894;DHT22;51343;51.396;6.656;2023-04-16T08:51:03;10.90;1.00
7894;DHT22;51343;51.396;6.656;2023-04-16T08:53:34;11.10;99.90
7894;DHT22;51343;51.396;6.656;2023-04-16T08:56:02;11.20;1.00
7894;DHT22;51343;51.396;6.656;2023-04-16T08:58:30;11.10;1.00
7894;DHT22;51343;51.396;6.656;2023-04-16T09:00:59;11.10;1.00
7894;DHT22;51343;51.396;6.656;2023-04-16T09:03:26;11.20;1.00
7894;DHT22;51343;51.396;6.656;2023-04-16T09:05:55;11.10;1.00
7894;DHT22;51343;51.396;6.656;2023-04-16T09:08:23;11.10;1.00
7894;DHT22;51343;51.396;6.656;2023-04-16T09:10:50;11.10;1.00
7894;DHT22;51343;51.396;6.656;2023-04-16T09:13:18;11.20;1.00
7894;DHT22;51343;51.396;6.656;2023-04-16T09:15:46;11.20;6.10
7894;DHT22;51343;51.396;6.656;2023-04-16T09:18:13;11.20;1.00
7894;DHT22;51343;51.396;6.656;2023-04-16T09:20:39;11.20;1.00
7894;DHT22;51343;51.396;6.656;2023-04-16T09:23:09;11.20;1.00
7894;DHT22;51343;51.396;6.656;2023-04-16T09:25:35;11.40;1.00
7894;DHT22;51343;51.396;6.656;2023-04-16T09:28:02;11.60;1.00
7894;DHT22;51343;51.396;6.656;2023-04-16T09:30:29;11.70;1.00
7894;DHT22;51343;51.396;6.656;2023-04-16T09:33:10;11.60;1.00
7894;DHT22;51343;51.396;6.656;2023-04-16T09:35:43;11.70;1.00
7894;DHT22;51343;51.396;6.656;2023-04-16T09:38:11;11.80;1.00
7894;DHT22;51343;51.396;6.656;2023-04-16T09:40:38;11.80;1.00
7894;DHT22;51343;51.396;6.656;2023-04-16T09:43:08;11.90;1.00
7894;DHT22;51343;51.396;6.656;2023-04-16T09:45:41;12.00;1.00
7894;DHT22;51343;51.396;6.656;2023-04-16T09:48:13;12.10;1.00
7894;DHT22;51343;51.396;6.656;2023-04-16T09:50:42;12.20;1.00
7894;DHT22;51343;51.396;6.656;2023-04-16T09:53:13;12.20;1.00
7894;DHT22;51343;51.396;6.656;2023-04-16T09:55:40;12.30;1.00
7894;DHT22;51343;51.396;6.656;2023-04-16T09:58:07;12.50;1.00
7894;DHT22;51343;51.396;6.656;2023-04-16T10:00:34;12.60;1.00
7894;DHT22;51343;51.396;6.656;2023-04-16T10:03:03;12.80;1.00
7894;DHT22;51343;51.396;6.656;2023-04-16T10:05:30;12.90;1.00
7894;DHT22;51343;51.396;6.656;2023-04-16T10:07:58;13.00;1.00
7894;DHT22;51343;51.396;6.656;2023-04-16T10:10:26;13.00;99.90
7894;DHT22;51343;51.396;6.656;2023-04-16T10:12:53;13.00;99.90
7894;DHT22;51343;51.396;6.656;2023-04-16T10:15:20;13.20;99.90
7894;DHT22;51343;51.396;6.656;2023-04-16T10:17:47;13.30;99.90
7894;DHT22;51343;51.396;6.656;2023-04-16T10:20:14;13.30;99.90
7894;DHT22;51343;51.396;6.656;2023-04-16T10:22:41;13.20;99.90
7894;DHT22;51343;51.396;6.656;2023-04-16T10:25:08;13.00;99.90
7894;DHT22;51343;51.396;6.656;2023-04-16T10:27:37;13.00;99.90
7894;DHT22;51343;51.396;6.656;2023-04-16T10:30:04;12.80;99.90
7894;DHT22;51343;51.396;6.656;2023-04-16T10:32:31;13.00;99.90
7894;DHT22;51343;51.396;6.656;2023-04-16T10:34:58;13.10;99.90
7894;DHT22;51343;51.396;6.656;2023-04-16T10:37:28;13.00;99.90
7894;DHT22;51343;51.396;6.656;2023-04-16T10:39:54;13.10;99.90
7894;DHT22;51343;51.396;6.656;2023-04-16T10:42:21;13.20;99.90
7894;DHT22;51343;51.396;6.656;2023-04-16T10:44:49;13.50;99.90
7894;DHT22;51343;51.396;6.656;2023-04-16T10:47:16;13.70;99.90
7894;DHT22;51343;51.396;6.656;2023-04-16T10:49:42;13.70;99.90
7894;DHT22;51343;51.396;6.656;2023-04-16T10:52:10;13.70;99.90
7894;DHT22;51343;51.396;6.656;2023-04-16T10:54:37;13.90;99.90
7894;DHT22;51343;51.396;6.656;2023-04-16T10:57:08;14.10;99.90
7894;DHT22;51343;51.396;6.656;2023-04-16T10:59:36;14.20;99.90
7894;DHT22;51343;51.396;6.656;2023-04-16T11:02:07;14.40;99.90
7894;DHT22;51343;51.396;6.656;2023-04-16T11:04:35;14.20;99.90
7894;DHT22;51343;51.396;6.656;2023-04-16T11:07:03;14.50;99.90
7894;DHT22;51343;51.396;6.656;2023-04-16T11:12:15;15.40;99.90
7894;DHT22;51343;51.396;6.656;2023-04-16T11:14:44;16.40;99.90
7894;DHT22;51343;51.396;6.656;2023-04-16T11:17:13;16.60;99.90
7894;DHT22;51343;51.396;6.656;2023-04-16T11:19:41;16.20;99.90
7894;DHT22;51343;51.396;6.656;2023-04-16T11:22:09;15.80;99.90
7894;DHT22;51343;51.396;6.656;2023-04-16T11:24:37;15.60;99.90
7894;DHT22;51343;51.396;6.656;2023-04-16T11:27:05;15.20;99.90
7894;DHT22;51343;51.396;6.656;2023-04-16T11:29:31;15.00;99.90
7894;DHT22;51343;51.396;6.656;2023-04-16T11:31:58;15.30;99.90
7894;DHT22;51343;51.396;6.656;2023-04-16T11:34:26;15.30;99.90
7894;DHT22;51343;51.396;6.656;2023-04-16T11:36:53;15.10;99.90
7894;DHT22;51343;51.396;6.656;2023-04-16T11:39:20;15.00;99.90
7894;DHT22;51343;51.396;6.656;2023-04-16T11:41:47;15.00;99.90
7894;DHT22;51343;51.396;6.656;2023-04-16T11:44:17;15.10;99.90
7894;DHT22;51343;51.396;6.656;2023-04-16T11:46:44;15.20;99.90
7894;DHT22;51343;51.396;6.656;2023-04-16T11:49:10;15.20;99.90
7894;DHT22;51343;51.396;6.656;2023-04-16T11:51:42;15.00;99.90
7894;DHT22;51343;51.396;6.656;2023-04-16T11:54:09;15.00;99.90
7894;DHT22;51343;51.396;6.656;2023-04-16T11:56:35;15.20;99.90
7894;DHT22;51343;51.396;6.656;2023-04-16T11:59:06;15.40;99.90
7894;DHT22;51343;51.396;6.656;2023-04-16T12:01:33;15.80;99.90
7894;DHT22;51343;51.396;6.656;2023-04-16T12:04:00;15.90;92.80
7894;DHT22;51343;51.396;6.656;2023-04-16T12:06:27;15.80;99.90
7894;DHT22;51343;51.396;6.656;2023-04-16T12:08:57;15.40;99.30
7894;DHT22;51343;51.396;6.656;2023-04-16T12:11:36;15.30;99.90
7894;DHT22;51343;51.396;6.656;2023-04-16T12:14:07;15.30;99.90
7894;DHT22;51343;51.396;6.656;2023-04-16T12:16:33;15.20;99.90
7894;DHT22;51343;51.396;6.656;2023-04-16T12:19:01;15.00;99.90
7894;DHT22;51343;51.396;6.656;2023-04-16T12:21:38;14.70;99.90
7894;DHT22;51343;51.396;6.656;2023-04-16T12:24:06;14.50;99.90
7894;DHT22;51343;51.396;6.656;2023-04-16T12:26:36;14.60;99.90
7894;DHT22;51343;51.396;6.656;2023-04-16T12:29:13;14.90;99.90
7894;DHT22;51343;51.396;6.656;2023-04-16T12:31:40;15.50;99.90
7894;DHT22;51343;51.396;6.656;2023-04-16T12:34:06;16.50;99.90
7894;DHT22;51343;51.396;6.656;2023-04-16T12:36:34;16.60;99.90
7894;DHT22;51343;51.396;6.656;2023-04-16T12:39:01;17.50;99.90
7894;DHT22;51343;51.396;6.656;2023-04-16T12:41:29;17.80;74.40
7894;DHT22;51343;51.396;6.656;2023-04-16T12:44:02;17.40;99.90
7894;DHT22;51343;51.396;6.656;2023-04-16T12:46:28;17.80;90.10
7894;DHT22;51343;51.396;6.656;2023-04-16T12:48:55;17.40;99.90
7894;DHT22;51343;51.396;6.656;2023-04-16T12:51:22;16.70;99.90
7894;DHT22;51343;51.396;6.656;2023-04-16T12:53:48;16.30;94.00
7894;DHT22;51343;51.396;6.656;2023-04-16T12:56:15;16.00;99.90
7894;DHT22;51343;51.396;6.656;2023-04-16T12:58:43;15.70;99.90
7894;DHT22;51343;51.396;6.656;2023-04-16T13:01:10;15.60;99.90
7894;DHT22;51343;51.396;6.656;2023-04-16T13:03:37;15.60;99.90
7894;DHT22;51343;51.396;6.656;2023-04-16T13:06:03;15.60;99.90
7894;DHT22;51343;51.396;6.656;2023-04-16T13:08:30;15.40;99.90
7894;DHT22;51343;51.396;6.656;2023-04-16T13:10:57;15.30;99.90
7894;DHT22;51343;51.396;6.656;2023-04-16T13:13:24;15.30;99.90
7894;DHT22;51343;51.396;6.656;2023-04-16T13:15:52;15.30;99.90
7894;DHT22;51343;51.396;6.656;2023-04-16T13:18:18;15.40;99.90
7894;DHT22;51343;51.396;6.656;2023-04-16T13:20:45;15.50;99.90
7894;DHT22;51343;51.396;6.656;2023-04-16T13:23:12;15.50;99.90
7894;DHT22;51343;51.396;6.656;2023-04-16T13:25:39;15.60;99.90
7894;DHT22;51343;51.396;6.656;2023-04-16T13:28:05;15.60;99.90
7894;DHT22;51343;51.396;6.656;2023-04-16T13:30:32;15.40;99.90
7894;DHT22;51343;51.396;6.656;2023-04-16T13:33:01;15.30;90.40
7894;DHT22;51343;51.396;6.656;2023-04-16T13:35:27;15.20;99.90
7894;DHT22;51343;51.396;6.656;2023-04-16T13:37:54;15.40;99.90
7894;DHT22;51343;51.396;6.656;2023-04-16T13:40:21;15.40;70.80
7894;DHT22;51343;51.396;6.656;2023-04-16T13:42:47;15.40;67.30
7894;DHT22;51343;51.396;6.656;2023-04-16T13:45:14;15.40;90.50
7894;DHT22;51343;51.396;6.656;2023-04-16T13:47:41;15.20;45.70
7894;DHT22;51343;51.396;6.656;2023-04-16T13:50:09;15.10;52.10
7894;DHT22;51343;51.396;6.656;2023-04-16T13:52:36;15.10;97.10
7894;DHT22;51343;51.396;6.656;2023-04-16T13:55:03;15.10;80.20
7894;DHT22;51343;51.396;6.656;2023-04-16T13:57:31;15.30;77.40
7894;DHT22;51343;51.396;6.656;2023-04-16T13:59:57;15.30;75.60
7894;DHT22;51343;51.396;6.656;2023-04-16T14:02:24;15.40;66.90
7894;DHT22;51343;51.396;6.656;2023-04-16T14:04:51;15.50;93.10
7894;DHT22;51343;51.396;6.656;2023-04-16T14:07:19;15.40;99.90
7894;DHT22;51343;51.396;6.656;2023-04-16T14:09:49;15.50;99.90
7894;DHT22;51343;51.396;6.656;2023-04-16T14:12:16;15.60;99.90
7894;DHT22;51343;51.396;6.656;2023-04-16T14:14:43;15.70;75.50
7894;DHT22;51343;51.396;6.656;2023-04-16T14:17:09;15.70;92.30
7894;DHT22;51343;51.396;6.656;2023-04-16T14:19:36;15.80;99.90
7894;DHT22;51343;51.396;6.656;2023-04-16T14:22:02;15.80;99.90
7894;DHT22;51343;51.396;6.656;2023-04-16T14:24:30;15.90;99.90
7894;DHT22;51343;51.396;6.656;2023-04-16T14:26:57;15.80;99.90
7894;DHT22;51343;51.396;6.656;2023-04-16T14:29:24;15.70;99.90
7894;DHT22;51343;51.396;6.656;2023-04-16T14:31:50;15.50;99.90
7894;DHT22;51343;51.396;6.656;2023-04-16T14:34:17;15.50;99.90
7894;DHT22;51343;51.396;6.656;2023-04-16T14:36:44;15.40;99.90
7894;DHT22;51343;51.396;6.656;2023-04-16T14:39:10;15.30;99.10
7894;DHT22;51343;51.396;6.656;2023-04-16T14:41:38;15.10;92.20
7894;DHT22;51343;51.396;6.656;2023-04-16T14:44:05;15.00;99.90
7894;DHT22;51343;51.396;6.656;2023-04-16T14:46:32;15.00;99.90
7894;DHT22;51343;51.396;6.656;2023-04-16T14:48:59;14.90;99.90
7894;DHT22;51343;51.396;6.656;2023-04-16T14:51:25;14.90;99.90
7894;DHT22;51343;51.396;6.656;2023-04-16T14:53:52;14.80;99.90
7894;DHT22;51343;51.396;6.656;2023-04-16T14:56:19;14.80;99.90
7894;DHT22;51343;51.396;6.656;2023-04-16T14:58:47;15.00;99.90
7894;DHT22;51343;51.396;6.656;2023-04-16T15:01:13;15.20;99.90
7894;DHT22;51343;51.396;6.656;2023-04-16T15:03:40;15.20;99.90
7894;DHT22;51343;51.396;6.656;2023-04-16T15:06:08;15.10;99.90
7894;DHT22;51343;51.396;6.656;2023-04-16T15:08:34;14.90;99.90
7894;DHT22;51343;51.396;6.656;2023-04-16T15:11:01;14.60;99.90
7894;DHT22;51343;51.396;6.656;2023-04-16T15:13:28;14.30;99.90
7894;DHT22;51343;51.396;6.656;2023-04-16T15:15:59;14.20;99.90
7894;DHT22;51343;51.396;6.656;2023-04-16T15:18:26;14.00;99.90
7894;DHT22;51343;51.396;6.656;2023-04-16T15:20:53;13.90;99.90
7894;DHT22;51343;51.396;6.656;2023-04-16T15:23:20;13.70;99.90
7894;DHT22;51343;51.396;6.656;2023-04-16T15:25:47;13.60;99.90
7894;DHT22;51343;51.396;6.656;2023-04-16T15:28:13;13.60;99.90
7894;DHT22;51343;51.396;6.656;2023-04-16T15:30:40;13.70;99.90
7894;DHT22;51343;51.396;6.656;2023-04-16T15:33:08;13.70;99.90
7894;DHT22;51343;51.396;6.656;2023-04-16T15:35:35;13.70;99.90
7894;DHT22;51343;51.396;6.656;2023-04-16T15:38:03;13.70;99.90
7894;DHT22;51343;51.396;6.656;2023-04-16T15:40:36;13.80;99.90
7894;DHT22;51343;51.396;6.656;2023-04-16T15:43:02;13.80;99.90
7894;DHT22;51343;51.396;6.656;2023-04-16T15:45:30;13.80;99.90
7894;DHT22;51343;51.396;6.656;2023-04-16T15:47:57;13.80;99.90
7894;DHT22;51343;51.396;6.656;2023-04-16T15:50:25;13.70;99.90
7894;DHT22;51343;51.396;6.656;2023-04-16T15:52:52;13.70;99.90
7894;DHT22;51343;51.396;6.656;2023-04-16T15:55:18;13.60;99.90
7894;DHT22;51343;51.396;6.656;2023-04-16T15:57:45;13.40;99.90